This is the latest recevied weather packets stored in our database for station/object KG7BDA. If no packets are shown the sender has not sent any weather packets the latest 1 day(s).
| Time | Temp. | Humidity | Pressure | Rain* | Wind** | Luminosity | Snow |
|---|---|---|---|---|---|---|---|
| 1777972879 | 13.33° C | 54% | 1006.5 hPa | 0 mm | 0.45 m/s, 286° | - | - |
| 1777972519 | 13.33° C | 53% | 1006.5 hPa | 0 mm | 0.89 m/s, 333° | - | - |
| 1777972159 | 13.33° C | 54% | 1006.5 hPa | 0 mm | 2.24 m/s, 305° | - | - |
| 1777971832 | 12.78° C | 56% | 1006.5 hPa | 0 mm | 0.89 m/s, 345° | - | - |
| 1777971800 | 12.78° C | 56% | 1006.5 hPa | 0 mm | 0.89 m/s, 345° | - | - |
| 1777971440 | 13.33° C | 54% | 1006.7 hPa | 0 mm | 0.89 m/s, 102° | - | - |
| 1777971079 | 13.89° C | 54% | 1006.8 hPa | 0 mm | 0 m/s | - | - |
| 1777970719 | 13.33° C | 54% | 1006.7 hPa | 0 mm | 1.34 m/s, 76° | - | - |
| 1777970358 | 13.33° C | 54% | 1006.5 hPa | 0 mm | 0 m/s | - | - |
| 1777969999 | 13.33° C | 55% | 1006.2 hPa | 0 mm | 0.89 m/s, 330° | - | - |
| 1777969640 | 13.33° C | 55% | 1006 hPa | 0 mm | 0 m/s | - | - |
| 1777969280 | 12.78° C | 56% | 1006.1 hPa | 0 mm | 0 m/s | - | - |
| 1777968919 | 12.78° C | 57% | 1006 hPa | 0 mm | 0.45 m/s, 320° | - | - |
| 1777968559 | 12.78° C | 57% | 1006 hPa | 0 mm | 0.89 m/s, 332° | - | - |
| 1777968198 | 12.78° C | 57% | 1006 hPa | 0 mm | 0.89 m/s, 317° | - | - |
| 1777967839 | 12.22° C | 57% | 1006 hPa | 0 mm | 0.89 m/s, 248° | - | - |
| 1777967478 | 12.78° C | 57% | 1005.9 hPa | 0 mm | 0 m/s | - | - |
| 1777967119 | 13.33° C | 55% | 1006 hPa | 0 mm | 0.45 m/s, 242° | - | - |
| 1777966759 | 13.89° C | 53% | 1005.8 hPa | 0 mm | 1.34 m/s, 253° | - | - |
| 1777966400 | 13.89° C | 52% | 1005.7 hPa | 0 mm | 1.34 m/s, 274° | - | - |
| 1777966040 | 14.44° C | 52% | 1005.8 hPa | 0 mm | 0.89 m/s, 301° | - | - |
| 1777965680 | 13.89° C | 52% | 1005.6 hPa | 0 mm | 0.89 m/s, 284° | - | - |
| 1777965319 | 13.89° C | 52% | 1005.6 hPa | 0 mm | 0.89 m/s, 195° | - | - |
| 1777964598 | 14.44° C | 50% | 1005.6 hPa | 0 mm | 0.45 m/s, 293° | - | - |
| 1777964238 | 15° C | 49% | 1005.3 hPa | 0 mm | 0.89 m/s, 295° | - | - |
* Rain latest hour (hover to see other rain measurements)
** Current wind speed in m/s (hover to see current wind gust speed)